Time;durP1;ratioP1;P1;durP2;ratioP2;P2;SDS_P1;SDS_P2;PMS_P1;PMS_P2;Temp;Humidity;BMP_temperature;BMP_pressure;BME280_temperature;BME280_humidity;BME280_pressure;Samples;Min_cycle;Max_cycle;Signal;HPM_P1;HPM_P2
2023/10/31 00:00:51;;;;;;;1.03;0.83;;;;;;;13.01;100.00;94770.72;5037340;28;20228;-72
2023/10/31 00:03:18;;;;;;;1.80;1.00;;;;;;;12.96;100.00;94770.59;5036027;28;21215;-73
2023/10/31 00:05:44;;;;;;;0.40;0.40;;;;;;;12.98;100.00;94774.63;5038148;28;20235;-71
2023/10/31 00:08:11;;;;;;;0.63;0.63;;;;;;;13.14;100.00;94768.66;5037030;28;20229;-71
2023/10/31 00:10:37;;;;;;;1.00;0.90;;;;;;;13.18;100.00;94772.47;5038192;28;20211;-72
2023/10/31 00:13:04;;;;;;;1.57;0.70;;;;;;;12.83;100.00;94773.41;5038101;28;20229;-72
2023/10/31 00:15:32;;;;;;;0.90;0.70;;;;;;;13.24;100.00;94773.38;5036607;28;20243;-72
2023/10/31 00:17:58;;;;;;;2.43;0.73;;;;;;;12.95;100.00;94776.91;5037951;28;20204;-71
2023/10/31 00:20:25;;;;;;;0.60;0.60;;;;;;;13.13;100.00;94774.97;5037001;28;20197;-72
2023/10/31 00:22:51;;;;;;;0.70;0.50;;;;;;;12.96;100.00;94776.69;5037376;28;20212;-71
2023/10/31 00:25:18;;;;;;;0.87;0.60;;;;;;;12.89;100.00;94783.09;5036784;28;20232;-73
2023/10/31 00:27:45;;;;;;;0.50;0.50;;;;;;;13.02;100.00;94769.69;5036900;28;20674;-72
2023/10/31 00:30:12;;;;;;;0.70;0.60;;;;;;;12.88;100.00;94777.00;5037079;28;20205;-72
2023/10/31 00:32:40;;;;;;;0.57;0.57;;;;;;;12.96;100.00;94776.69;5037027;28;20192;-71
2023/10/31 00:35:07;;;;;;;1.07;0.60;;;;;;;12.92;100.00;94785.31;5037446;28;20225;-72
2023/10/31 00:37:33;;;;;;;0.80;0.50;;;;;;;12.48;100.00;94782.25;5037333;28;20193;-72
2023/10/31 00:40:00;;;;;;;0.70;0.50;;;;;;;12.56;100.00;94774.00;5037918;28;20695;-72
2023/10/31 00:42:26;;;;;;;1.10;0.73;;;;;;;12.51;100.00;94769.41;5037331;28;20208;-71
2023/10/31 00:44:53;;;;;;;0.93;0.80;;;;;;;12.50;100.00;94773.06;5037651;28;20224;-73
2023/10/31 00:47:20;;;;;;;0.77;0.70;;;;;;;12.46;100.00;94765.78;5037295;28;20232;-71
2023/10/31 00:49:47;;;;;;;1.07;0.50;;;;;;;12.61;100.00;94766.19;5037912;28;20205;-71
2023/10/31 00:52:14;;;;;;;0.73;0.60;;;;;;;12.73;100.00;94761.75;5036749;28;20201;-72
2023/10/31 00:54:41;;;;;;;1.37;0.70;;;;;;;12.61;100.00;94756.44;5036959;28;20224;-72
2023/10/31 00:57:07;;;;;;;0.57;0.47;;;;;;;12.55;100.00;94762.63;5037963;28;20208;-71
2023/10/31 00:59:34;;;;;;;2.17;1.07;;;;;;;12.40;100.00;94780.72;5036796;28;20209;-72
2023/10/31 01:02:00;;;;;;;0.70;0.70;;;;;;;12.61;100.00;94767.00;5036531;28;20205;-71
2023/10/31 01:04:27;;;;;;;1.43;1.07;;;;;;;12.53;100.00;94785.03;5036101;28;20209;-72
2023/10/31 01:06:55;;;;;;;3.17;1.10;;;;;;;12.74;100.00;94781.88;5037674;28;20200;-71
2023/10/31 01:09:21;;;;;;;2.43;1.00;;;;;;;12.52;100.00;94788.69;5035998;28;20225;-72
2023/10/31 01:11:48;;;;;;;3.27;0.60;;;;;;;12.69;100.00;94774.63;5036136;28;20201;-71
2023/10/31 01:14:14;;;;;;;0.93;0.70;;;;;;;12.63;100.00;94780.81;5035621;28;20197;-71
2023/10/31 01:16:41;;;;;;;1.37;0.93;;;;;;;12.56;100.00;94779.28;5036448;28;20228;-72
2023/10/31 01:19:08;;;;;;;0.90;0.70;;;;;;;12.50;100.00;94791.56;5035412;28;20216;-72
2023/10/31 01:21:34;;;;;;;1.07;0.87;;;;;;;12.49;100.00;94797.84;5035314;28;20581;-72
2023/10/31 01:24:02;;;;;;;1.30;1.00;;;;;;;12.63;100.00;94801.16;5036283;28;20193;-71
2023/10/31 01:26:29;;;;;;;4.00;1.13;;;;;;;12.48;100.00;94798.88;5035753;28;20229;-71
2023/10/31 01:28:55;;;;;;;0.70;0.60;;;;;;;12.51;100.00;94808.19;5035899;28;20220;-71
2023/10/31 01:31:22;;;;;;;0.90;0.80;;;;;;;12.30;100.00;94812.13;5035445;28;20207;-71
2023/10/31 01:33:48;;;;;;;1.10;1.00;;;;;;;12.48;100.00;94812.09;5035688;28;20201;-71
2023/10/31 01:36:15;;;;;;;1.30;0.90;;;;;;;12.40;100.00;94809.75;5035624;28;20221;-72
2023/10/31 01:38:41;;;;;;;2.23;1.03;;;;;;;12.33;100.00;94808.22;5036561;28;20202;-72
2023/10/31 01:41:09;;;;;;;1.27;0.97;;;;;;;12.48;100.00;94814.72;5035174;28;20672;-72
2023/10/31 01:43:37;;;;;;;0.93;0.80;;;;;;;12.38;100.00;94816.28;5035582;28;20201;-72
2023/10/31 01:46:04;;;;;;;0.80;0.70;;;;;;;12.50;100.00;94825.06;5036718;28;20233;-73
2023/10/31 01:48:33;;;;;;;1.40;1.10;;;;;;;12.58;100.00;94830.88;5034627;28;20720;-71
2023/10/31 01:51:01;;;;;;;1.20;1.00;;;;;;;12.66;100.00;94832.41;5036656;28;20201;-72
2023/10/31 01:53:30;;;;;;;0.87;0.80;;;;;;;12.59;100.00;94842.22;5035873;28;20211;-72
2023/10/31 01:55:57;;;;;;;1.23;0.93;;;;;;;12.61;100.00;94851.56;5035913;28;20236;-72
2023/10/31 01:58:31;;;;;;;1.13;0.90;;;;;;;12.70;100.00;94847.56;5035190;28;20263;-71
2023/10/31 02:00:58;;;;;;;0.93;0.77;;;;;;;12.57;100.00;94855.69;5035276;28;20668;-71
2023/10/31 02:03:25;;;;;;;1.40;1.10;;;;;;;12.31;100.00;94858.63;5035757;28;20201;-72
2023/10/31 02:05:52;;;;;;;1.10;0.90;;;;;;;12.57;100.00;94855.69;5036668;28;20228;-71
2023/10/31 02:08:18;;;;;;;2.03;1.20;;;;;;;12.48;100.00;94862.28;5036529;28;20225;-73
2023/10/31 02:10:45;;;;;;;3.53;1.00;;;;;;;12.57;100.00;94858.31;5035619;28;20204;-72
2023/10/31 02:13:12;;;;;;;1.57;0.80;;;;;;;12.57;100.00;94854.88;5036217;28;20212;-71
2023/10/31 02:15:40;;;;;;;1.43;0.90;;;;;;;12.55;100.00;94856.91;5034664;28;20217;-72
2023/10/31 02:18:07;;;;;;;1.07;0.90;;;;;;;12.43;100.00;94846.28;5035288;28;20204;-73
2023/10/31 02:20:33;;;;;;;1.30;0.90;;;;;;;12.53;100.00;94849.22;5035225;28;20208;-71
2023/10/31 02:23:01;;;;;;;1.00;0.90;;;;;;;12.62;100.00;94842.59;5036086;28;20207;-71
2023/10/31 02:25:28;;;;;;;1.33;1.00;;;;;;;12.49;100.00;94852.53;5034904;28;20231;-71
2023/10/31 02:27:54;;;;;;;1.40;1.07;;;;;;;12.39;100.00;94847.75;5035424;28;20231;-72
2023/10/31 02:30:21;;;;;;;1.17;0.80;;;;;;;12.41;100.00;94853.66;5035980;28;20215;-71
2023/10/31 02:32:48;;;;;;;1.63;1.20;;;;;;;12.49;100.00;94853.34;5034869;28;20201;-71
2023/10/31 02:35:17;;;;;;;1.33;0.90;;;;;;;12.70;100.00;94852.84;5035154;28;20236;-72
2023/10/31 02:37:44;;;;;;;0.87;0.80;;;;;;;12.57;100.00;94866.25;5035298;28;20201;-72
2023/10/31 02:40:13;;;;;;;1.40;0.87;;;;;;;12.81;100.00;94850.25;5034962;28;20207;-72
2023/10/31 02:42:40;;;;;;;0.87;0.77;;;;;;;12.54;100.00;94850.84;5033829;28;20204;-72
2023/10/31 02:45:07;;;;;;;2.97;1.03;;;;;;;12.64;100.00;94853.78;5035092;28;20231;-72
2023/10/31 02:47:34;;;;;;;1.00;0.90;;;;;;;12.50;100.00;94854.97;5035105;28;20209;-72
2023/10/31 02:50:00;;;;;;;1.30;1.00;;;;;;;12.38;100.00;94867.28;5036483;28;20201;-72
2023/10/31 02:52:27;;;;;;;1.67;1.20;;;;;;;12.56;100.00;94872.53;5037461;28;20205;-72
2023/10/31 02:54:53;;;;;;;1.17;1.00;;;;;;;12.53;100.00;94877.50;5040245;28;20220;-72
2023/10/31 02:57:21;;;;;;;1.53;0.90;;;;;;;12.49;100.00;94877.13;5038924;28;20197;-72
2023/10/31 02:59:48;;;;;;;1.67;1.00;;;;;;;12.36;100.00;94885.19;5038780;28;21062;-72
2023/10/31 03:02:14;;;;;;;1.30;0.90;;;;;;;12.49;100.00;94895.63;5038587;28;20205;-71
2023/10/31 03:04:41;;;;;;;2.50;1.10;;;;;;;12.41;100.00;94898.56;5038138;28;20221;-72
2023/10/31 03:07:07;;;;;;;1.50;0.80;;;;;;;12.50;100.00;94888.47;5039009;28;20215;-72
2023/10/31 03:09:34;;;;;;;1.83;1.10;;;;;;;12.41;100.00;94893.28;5039971;28;20232;-72
2023/10/31 03:12:01;;;;;;;5.20;1.10;;;;;;;12.48;100.00;94893.19;5039208;28;20216;-72
2023/10/31 03:14:29;;;;;;;1.77;1.20;;;;;;;12.68;100.00;94894.56;5038956;28;20220;-71
2023/10/31 03:16:55;;;;;;;1.50;1.00;;;;;;;12.50;100.00;94897.22;5039921;28;20201;-71
2023/10/31 03:19:22;;;;;;;1.23;0.90;;;;;;;12.79;100.00;94899.94;5038566;28;20683;-71
2023/10/31 03:21:48;;;;;;;1.40;0.90;;;;;;;13.04;100.00;94907.78;5038717;28;20201;-73
2023/10/31 03:24:15;;;;;;;1.30;0.90;;;;;;;12.96;100.00;94908.09;5039722;28;20207;-71
2023/10/31 03:26:41;;;;;;;2.53;0.90;;;;;;;12.82;100.00;94911.88;5039419;28;20228;-71
2023/10/31 03:29:08;;;;;;;1.27;1.10;;;;;;;12.91;100.00;94906.09;5039345;28;20726;-72
2023/10/31 03:31:36;;;;;;;1.20;1.10;;;;;;;13.06;100.00;94905.69;5038548;28;20760;-72
2023/10/31 03:34:02;;;;;;;2.07;1.03;;;;;;;12.85;100.00;94906.97;5039003;28;20214;-72
2023/10/31 03:36:29;;;;;;;0.97;0.87;;;;;;;12.89;100.00;94907.34;5036401;28;20228;-72
2023/10/31 03:38:55;;;;;;;1.60;0.93;;;;;;;12.85;100.00;94911.44;5039548;28;20197;-72
2023/10/31 03:41:22;;;;;;;1.10;0.90;;;;;;;12.72;100.00;94908.97;5038738;28;20215;-72
2023/10/31 03:43:48;;;;;;;1.37;1.10;;;;;;;12.82;100.00;94911.88;5038011;28;20205;-72
2023/10/31 03:46:15;;;;;;;2.80;0.93;;;;;;;12.82;100.00;94912.69;5038160;28;20225;-72
2023/10/31 03:48:42;;;;;;;5.70;1.37;;;;;;;12.93;100.00;94911.16;5037766;28;20221;-72
2023/10/31 03:51:09;;;;;;;1.07;0.80;;;;;;;12.92;100.00;94910.38;5039058;28;20308;-72
2023/10/31 03:53:36;;;;;;;0.80;0.53;;;;;;;12.60;100.00;94912.56;5039023;28;20583;-71
2023/10/31 03:56:02;;;;;;;1.27;0.80;;;;;;;12.73;100.00;94915.03;5038676;28;20220;-72
2023/10/31 03:58:29;;;;;;;0.90;0.80;;;;;;;12.58;100.00;94920.72;5038323;28;20201;-72
2023/10/31 04:00:56;;;;;;;0.93;0.70;;;;;;;12.37;100.00;94925.63;5037799;28;20586;-71
2023/10/31 04:03:22;;;;;;;0.87;0.77;;;;;;;12.52;100.00;94929.50;5037162;28;20206;-72
2023/10/31 04:05:50;;;;;;;1.00;0.77;;;;;;;12.56;100.00;94930.69;5039660;28;20225;-72
2023/10/31 04:08:17;;;;;;;1.43;1.00;;;;;;;12.49;100.00;94934.44;5038593;28;20782;-72
2023/10/31 04:10:43;;;;;;;1.40;0.90;;;;;;;12.49;100.00;94922.03;5038441;28;20201;-72
2023/10/31 04:13:10;;;;;;;1.07;0.90;;;;;;;12.55;100.00;94929.09;5038167;28;20201;-71
2023/10/31 04:15:36;;;;;;;1.87;1.10;;;;;;;12.47;100.00;94933.84;5037364;28;20225;-72
2023/10/31 04:18:03;;;;;;;1.33;1.13;;;;;;;12.46;100.00;94940.97;5038342;28;20324;-72
2023/10/31 04:20:30;;;;;;;1.27;0.90;;;;;;;12.51;100.00;94946.41;5038206;28;20197;-71
2023/10/31 04:22:58;;;;;;;1.30;0.80;;;;;;;12.81;100.00;94947.28;5038045;28;20208;-72
2023/10/31 04:25:24;;;;;;;2.70;0.80;;;;;;;12.48;100.00;94952.13;5037709;28;20221;-72
2023/10/31 04:27:51;;;;;;;0.80;0.80;;;;;;;12.37;100.00;94949.38;5038507;28;20207;-72
2023/10/31 04:30:17;;;;;;;0.77;0.67;;;;;;;12.40;100.00;94944.47;5037810;28;20231;-72
2023/10/31 04:32:44;;;;;;;0.80;0.80;;;;;;;12.37;100.00;94950.22;5037596;28;20219;-72
2023/10/31 04:35:10;;;;;;;2.73;0.80;;;;;;;12.54;100.00;94951.25;5039225;28;20235;-72
2023/10/31 04:37:37;;;;;;;1.00;0.80;;;;;;;12.49;100.00;94952.94;5037832;28;20207;-72
2023/10/31 04:40:06;;;;;;;0.83;0.70;;;;;;;12.65;100.00;94947.84;5038561;28;20220;-72
2023/10/31 04:42:33;;;;;;;1.00;0.70;;;;;;;12.66;100.00;94952.13;5038013;28;20205;-72
2023/10/31 04:44:59;;;;;;;0.60;0.60;;;;;;;12.41;100.00;94948.75;5038647;28;20217;-72
2023/10/31 04:47:26;;;;;;;1.63;0.70;;;;;;;12.40;100.00;94948.97;5037836;28;20201;-72
2023/10/31 04:49:52;;;;;;;0.60;0.60;;;;;;;12.33;100.00;94943.75;5038976;28;20986;-72
2023/10/31 04:52:19;;;;;;;0.60;0.60;;;;;;;12.28;100.00;94940.97;5038226;28;20201;-71
2023/10/31 04:54:46;;;;;;;0.60;0.40;;;;;;;12.39;100.00;94945.50;5036789;28;20647;-72
2023/10/31 04:57:14;;;;;;;0.70;0.50;;;;;;;12.67;100.00;94948.44;5038522;28;20208;-71
2023/10/31 04:59:40;;;;;;;0.50;0.50;;;;;;;12.56;100.00;94943.09;5037734;28;20215;-72
2023/10/31 05:02:07;;;;;;;2.57;0.50;;;;;;;12.41;100.00;94943.47;5037251;28;20203;-71
2023/10/31 05:04:34;;;;;;;0.70;0.70;;;;;;;12.37;100.00;94946.75;5037429;28;20576;-72
2023/10/31 05:07:00;;;;;;;1.40;0.57;;;;;;;12.50;100.00;94944.78;5037662;28;20203;-71
2023/10/31 05:09:28;;;;;;;0.57;0.50;;;;;;;12.30;100.00;94952.09;5037433;28;20236;-72
2023/10/31 05:11:54;;;;;;;0.60;0.50;;;;;;;11.99;100.00;94956.66;5036318;28;20228;-72
2023/10/31 05:14:22;;;;;;;1.07;0.60;;;;;;;12.48;100.00;94952.13;5037780;28;20233;-71
2023/10/31 05:16:49;;;;;;;0.83;0.50;;;;;;;12.17;100.00;94962.00;5036801;28;20581;-72
2023/10/31 05:19:16;;;;;;;0.60;0.60;;;;;;;12.15;100.00;94960.59;5037759;28;20230;-72
2023/10/31 05:21:43;;;;;;;0.70;0.60;;;;;;;12.11;100.00;94964.69;5037193;28;20205;-72
2023/10/31 05:24:09;;;;;;;0.67;0.63;;;;;;;12.15;100.00;94965.88;5038374;28;20201;-72
2023/10/31 05:26:36;;;;;;;1.37;0.63;;;;;;;12.09;100.00;94961.44;5036498;28;20224;-72
2023/10/31 05:29:03;;;;;;;0.60;0.60;;;;;;;12.04;100.00;94962.13;5037849;28;20302;-71
2023/10/31 05:31:31;;;;;;;0.83;0.60;;;;;;;12.27;100.00;94949.91;5037348;28;20693;-72
2023/10/31 05:33:57;;;;;;;0.53;0.40;;;;;;;12.11;100.00;94954.13;5036680;28;20208;-72
2023/10/31 05:36:25;;;;;;;0.60;0.50;;;;;;;12.16;100.00;94963.81;5036793;28;20228;-71
2023/10/31 05:38:52;;;;;;;1.17;0.50;;;;;;;12.18;100.00;94967.06;5038089;28;20208;-72
2023/10/31 05:41:18;;;;;;;0.50;0.50;;;;;;;12.13;100.00;94967.91;5036749;28;20200;-71
2023/10/31 05:43:45;;;;;;;5.40;0.90;;;;;;;12.01;100.00;94970.44;5037273;28;20232;-71
2023/10/31 05:46:13;;;;;;;2.27;1.00;;;;;;;11.83;100.00;94978.31;5036507;28;21068;-71
2023/10/31 05:48:42;;;;;;;0.60;0.60;;;;;;;12.37;100.00;94979.28;5036428;28;20205;-72
2023/10/31 05:51:13;;;;;;;1.90;0.50;;;;;;;12.26;100.00;94990.53;5036134;28;20211;-73
2023/10/31 05:53:41;;;;;;;1.40;0.90;;;;;;;12.19;100.00;94999.53;5035935;28;20209;-71
2023/10/31 05:56:08;;;;;;;1.23;0.60;;;;;;;12.21;100.00;95003.56;5035819;28;20714;-71
2023/10/31 05:58:35;;;;;;;1.10;0.90;;;;;;;12.11;100.00;95012.22;5035709;28;20201;-72
2023/10/31 06:01:01;;;;;;;2.77;0.70;;;;;;;12.04;100.00;95016.72;5036038;28;20197;-71
2023/10/31 06:03:28;;;;;;;1.13;1.03;;;;;;;11.99;100.00;95030.59;5036104;28;20200;-72
2023/10/31 06:05:56;;;;;;;0.80;0.53;;;;;;;12.11;100.00;95033.34;5035541;28;20226;-71
2023/10/31 06:08:24;;;;;;;1.23;0.70;;;;;;;12.00;100.00;95050.66;5035248;28;20251;-72
2023/10/31 06:10:50;;;;;;;3.57;1.20;;;;;;;12.03;100.00;95049.44;5035912;28;20339;-71
2023/10/31 06:13:17;;;;;;;2.10;1.30;;;;;;;12.10;100.00;95056.28;5035018;28;20690;-71
2023/10/31 06:15:44;;;;;;;0.50;0.50;;;;;;;11.97;100.00;95061.66;5035256;28;20237;-72
2023/10/31 06:18:10;;;;;;;1.00;0.87;;;;;;;11.74;100.00;95071.97;5035309;28;20334;-71
2023/10/31 06:20:37;;;;;;;1.83;0.80;;;;;;;11.87;100.00;95069.22;5036368;28;20197;-72
2023/10/31 06:23:05;;;;;;;1.00;0.70;;;;;;;12.01;100.00;95075.25;5034307;28;21008;-72
2023/10/31 06:25:31;;;;;;;1.67;0.70;;;;;;;11.78;100.00;95082.91;5038086;28;20244;-71
2023/10/31 06:27:58;;;;;;;1.20;1.10;;;;;;;11.84;100.00;95079.44;5040328;28;20200;-72
2023/10/31 06:30:25;;;;;;;0.50;0.50;;;;;;;11.74;100.00;95090.44;5039386;28;20221;-72
2023/10/31 06:32:52;;;;;;;1.17;1.00;;;;;;;11.50;100.00;95087.72;5038750;28;20292;-73
2023/10/31 06:35:18;;;;;;;1.37;0.90;;;;;;;11.44;100.00;95088.50;5039754;28;20240;-70
2023/10/31 06:37:45;;;;;;;1.97;0.93;;;;;;;11.43;100.00;95109.81;5039138;28;20212;-72
2023/10/31 06:40:13;;;;;;;0.70;0.70;;;;;;;11.59;100.00;95110.19;5038803;28;20200;-71
2023/10/31 06:42:39;;;;;;;0.97;0.83;;;;;;;11.69;100.00;95107.94;5038267;28;20216;-73
2023/10/31 06:45:07;;;;;;;1.10;1.00;;;;;;;11.86;100.00;95103.75;5039730;28;20221;-71
2023/10/31 06:47:33;;;;;;;1.63;1.17;;;;;;;11.66;100.00;95108.34;5038924;28;20235;-71
2023/10/31 06:50:00;;;;;;;1.87;1.20;;;;;;;11.66;100.00;95121.53;5039182;28;20221;-73
2023/10/31 06:52:26;;;;;;;1.43;0.70;;;;;;;11.67;100.00;95112.59;5038983;28;20201;-71
2023/10/31 06:54:53;;;;;;;0.77;0.70;;;;;;;11.87;100.00;95121.22;5038694;28;20222;-71
2023/10/31 06:57:21;;;;;;;0.70;0.70;;;;;;;11.94;100.00;95121.97;5039399;28;20212;-71
2023/10/31 06:59:47;;;;;;;1.13;1.00;;;;;;;11.76;100.00;95124.53;5038964;28;20201;-71
2023/10/31 07:02:14;;;;;;;1.03;0.90;;;;;;;11.85;100.00;95129.38;5038729;28;20207;-73
2023/10/31 07:04:41;;;;;;;0.60;0.60;;;;;;;12.01;100.00;95131.50;5037846;28;20233;-73
2023/10/31 07:07:07;;;;;;;1.70;0.90;;;;;;;11.87;100.00;95123.88;5039110;28;20202;-71
2023/10/31 07:09:34;;;;;;;2.27;0.70;;;;;;;11.89;100.00;95130.56;5039235;28;20235;-70
2023/10/31 07:12:00;;;;;;;2.20;0.77;;;;;;;11.79;100.00;95132.03;5038710;28;20228;-72
2023/10/31 07:14:28;;;;;;;4.23;0.90;;;;;;;12.00;100.00;95132.50;5038423;28;20205;-71
2023/10/31 07:16:56;;;;;;;1.73;1.07;;;;;;;11.83;100.00;95146.44;5038976;28;20197;-73
2023/10/31 07:19:23;;;;;;;1.00;0.80;;;;;;;11.69;100.00;95145.66;5038429;28;20208;-73
2023/10/31 07:21:49;;;;;;;0.70;0.60;;;;;;;11.95;100.00;95142.91;5038232;28;20205;-71
2023/10/31 07:24:16;;;;;;;1.67;0.70;;;;;;;11.75;100.00;95144.84;5038153;28;20197;-71
2023/10/31 07:26:43;;;;;;;0.90;0.80;;;;;;;11.77;100.00;95147.25;5038408;28;20232;-71
2023/10/31 07:29:09;;;;;;;0.70;0.70;;;;;;;11.74;100.00;95153.75;5038756;28;20578;-73
2023/10/31 07:31:38;;;;;;;19.60;0.97;;;;;;;11.87;100.00;95152.91;5038090;28;20198;-72
2023/10/31 07:34:05;;;;;;;1.00;0.60;;;;;;;11.89;100.00;95156.13;5038544;28;20197;-71
2023/10/31 07:36:32;;;;;;;0.80;0.80;;;;;;;11.98;100.00;95155.69;5035725;28;20224;-72
2023/10/31 07:38:58;;;;;;;1.47;0.80;;;;;;;11.90;100.00;95161.22;5037239;28;20213;-73
2023/10/31 07:41:25;;;;;;;1.23;0.90;;;;;;;12.03;100.00;95157.69;5037197;28;21103;-72
2023/10/31 07:43:52;;;;;;;4.33;0.77;;;;;;;11.96;100.00;95164.84;5036864;28;20209;-74
2023/10/31 07:46:18;;;;;;;1.27;0.77;;;;;;;11.79;100.00;95167.16;5036411;28;20221;-71
2023/10/31 07:48:47;;;;;;;0.63;0.63;;;;;;;12.24;100.00;95174.00;5036982;28;20209;-72
2023/10/31 07:51:13;;;;;;;1.57;0.97;;;;;;;12.04;100.00;95165.41;5036414;28;20344;-72
2023/10/31 07:53:40;;;;;;;4.77;2.10;;;;;;;12.27;100.00;95171.75;5035776;28;20235;-72
2023/10/31 07:56:15;;;;;;;0.77;0.77;;;;;;;12.10;100.00;95174.31;5036743;28;20232;-71
2023/10/31 07:58:42;;;;;;;1.33;1.10;;;;;;;12.04;100.00;95183.06;5037275;28;20209;-72
2023/10/31 08:01:10;;;;;;;1.87;1.10;;;;;;;12.21;100.00;95180.53;5035480;28;21080;-71
2023/10/31 08:03:37;;;;;;;6.07;1.23;;;;;;;12.32;100.00;95169.28;5035948;28;20271;-72
2023/10/31 08:06:07;;;;;;;0.47;0.40;;;;;;;12.29;100.00;95180.25;5036230;28;20225;-72
2023/10/31 08:08:34;;;;;;;0.73;0.70;;;;;;;12.27;100.00;95174.41;5037439;28;20201;-73
2023/10/31 08:11:00;;;;;;;1.60;1.00;;;;;;;12.35;100.00;95179.44;5037349;28;20229;-72
2023/10/31 08:13:27;;;;;;;1.77;0.80;;;;;;;12.24;100.00;95181.94;5036519;28;20216;-71
2023/10/31 08:15:53;;;;;;;0.80;0.67;;;;;;;12.20;100.00;95173.63;5036474;28;20229;-72
2023/10/31 08:18:20;;;;;;;1.07;0.80;;;;;;;12.06;100.00;95175.75;5037182;28;20204;-72
2023/10/31 08:20:49;;;;;;;1.07;0.77;;;;;;;11.97;100.00;95180.47;5036382;28;21163;-71
2023/10/31 08:23:17;;;;;;;0.83;0.60;;;;;;;12.03;100.00;95174.34;5035878;28;21222;-73
2023/10/31 08:25:44;;;;;;;0.50;0.50;;;;;;;12.03;100.00;95179.63;5036180;28;20229;-73
2023/10/31 08:28:11;;;;;;;0.87;0.60;;;;;;;12.12;100.00;95178.34;5036525;28;20237;-71
2023/10/31 08:30:38;;;;;;;1.50;0.90;;;;;;;12.15;100.00;95174.50;5035748;28;20228;-72
2023/10/31 08:33:04;;;;;;;1.00;0.80;;;;;;;12.04;100.00;95181.25;5034518;28;20224;-72
2023/10/31 08:35:31;;;;;;;0.70;0.70;;;;;;;12.22;100.00;95165.50;5035681;28;20233;-71
2023/10/31 08:37:58;;;;;;;1.00;0.50;;;;;;;12.18;100.00;95173.03;5035379;28;20204;-71
2023/10/31 08:40:26;;;;;;;1.50;0.70;;;;;;;12.30;100.00;95166.03;5035046;28;20193;-71
2023/10/31 08:42:54;;;;;;;1.73;0.73;;;;;;;12.41;100.00;95162.72;5035692;28;20660;-72
2023/10/31 08:45:21;;;;;;;0.40;0.40;;;;;;;12.26;100.00;95159.56;5036589;28;20502;-72
2023/10/31 08:47:48;;;;;;;0.50;0.50;;;;;;;12.27;100.00;95163.84;5033996;28;20509;-71
2023/10/31 08:50:14;;;;;;;3.80;0.80;;;;;;;12.44;100.00;95164.94;5035826;28;20782;-72
2023/10/31 08:52:41;;;;;;;1.37;0.83;;;;;;;12.45;100.00;95165.75;5035092;28;20205;-73
2023/10/31 08:55:08;;;;;;;0.70;0.63;;;;;;;12.46;100.00;95162.91;5035837;28;20711;-71
2023/10/31 08:57:36;;;;;;;0.90;0.70;;;;;;;12.68;100.00;95169.44;5035828;28;20201;-71
2023/10/31 09:00:04;;;;;;;2.10;0.90;;;;;;;12.44;100.00;95164.94;5035387;28;20200;-71
2023/10/31 09:02:31;;;;;;;1.90;0.90;;;;;;;12.67;100.00;95159.88;5034560;28;21155;-72
2023/10/31 09:04:57;;;;;;;2.13;1.03;;;;;;;12.77;100.00;95155.72;5035527;28;20719;-73
2023/10/31 09:07:24;;;;;;;3.43;0.90;;;;;;;12.51;100.00;95168.34;5035707;28;20203;-71
2023/10/31 09:09:50;;;;;;;5.67;1.33;;;;;;;12.62;100.00;95169.50;5036618;28;20448;-73
2023/10/31 09:12:17;;;;;;;1.70;1.10;;;;;;;12.65;100.00;95176.97;5035708;28;20205;-72
2023/10/31 09:14:45;;;;;;;1.77;1.10;;;;;;;12.60;100.00;95179.44;5036709;28;20228;-71
2023/10/31 09:17:12;;;;;;;2.77;1.30;;;;;;;12.42;100.00;95179.38;5035761;28;20456;-73
2023/10/31 09:19:39;;;;;;;3.33;1.00;;;;;;;12.73;100.00;95182.81;5035700;28;20263;-72
2023/10/31 09:22:05;;;;;;;2.90;0.70;;;;;;;12.60;100.00;95184.75;5035937;28;20208;-71
2023/10/31 09:24:32;;;;;;;3.07;0.90;;;;;;;12.44;100.00;95186.06;5036173;28;20676;-72
2023/10/31 09:26:58;;;;;;;0.93;0.80;;;;;;;12.57;100.00;95193.09;5036084;28;20397;-71
2023/10/31 09:29:25;;;;;;;2.37;1.30;;;;;;;12.90;100.00;95199.78;5036180;28;20201;-71
2023/10/31 09:31:53;;;;;;;1.37;0.70;;;;;;;12.86;100.00;95201.25;5036412;28;20601;-72
2023/10/31 09:34:19;;;;;;;1.63;1.00;;;;;;;12.88;100.00;95212.41;5036175;28;20219;-73
2023/10/31 09:36:46;;;;;;;7.47;1.33;;;;;;;12.97;100.00;95222.50;5036290;28;20588;-72
2023/10/31 09:39:12;;;;;;;1.10;0.90;;;;;;;13.12;100.00;95224.81;5036390;28;20201;-72
2023/10/31 09:41:39;;;;;;;1.00;0.90;;;;;;;13.30;100.00;95222.22;5035695;28;20551;-71
2023/10/31 09:44:06;;;;;;;1.17;0.70;;;;;;;13.31;100.00;95232.56;5035706;28;20278;-71
2023/10/31 09:46:32;;;;;;;1.27;0.60;;;;;;;13.26;100.00;95234.28;5036157;28;20715;-71
2023/10/31 09:49:01;;;;;;;0.87;0.80;;;;;;;13.34;100.00;95244.56;5036264;28;20207;-73
2023/10/31 09:51:28;;;;;;;1.23;0.73;;;;;;;13.34;100.00;95242.75;5035613;28;20231;-72
2023/10/31 09:53:56;;;;;;;2.10;0.90;;;;;;;13.41;100.00;95246.94;5036518;28;20209;-71
2023/10/31 09:56:23;;;;;;;2.23;1.37;;;;;;;13.54;100.00;95251.28;5035428;28;20221;-72
2023/10/31 09:58:49;;;;;;;3.87;0.83;;;;;;;13.41;100.00;95251.41;5034785;28;20215;-73
2023/10/31 10:01:16;;;;;;;1.63;0.70;;;;;;;13.29;100.00;95253.16;5036116;28;20634;-71
2023/10/31 10:03:43;;;;;;;2.40;1.00;;;;;;;13.63;100.00;95261.41;5036576;28;20212;-71
2023/10/31 10:06:12;;;;;;;2.00;0.70;;;;;;;13.87;100.00;95251.78;5035790;28;20323;-71
2023/10/31 10:08:39;;;;;;;1.60;0.60;;;;;;;13.44;100.00;95251.81;5036019;28;20208;-71
2023/10/31 10:11:06;;;;;;;0.70;0.70;;;;;;;13.72;100.00;95249.50;5034948;28;20228;-72
2023/10/31 10:13:33;;;;;;;0.87;0.87;;;;;;;13.56;100.00;95244.75;5036092;28;20399;-71
2023/10/31 10:16:01;;;;;;;0.60;0.60;;;;;;;13.68;100.00;95253.63;5036261;28;20229;-71
2023/10/31 10:18:28;;;;;;;3.23;0.80;;;;;;;13.54;100.00;95252.13;5036586;28;20209;-71
2023/10/31 10:20:56;;;;;;;0.73;0.63;;;;;;;13.62;100.00;95259.78;5035396;28;20228;-71
2023/10/31 10:23:24;;;;;;;1.43;1.10;;;;;;;13.46;100.00;95254.22;5036209;28;20558;-72
2023/10/31 10:25:51;;;;;;;0.70;0.50;;;;;;;13.73;100.00;95266.97;5035482;28;20619;-71
2023/10/31 10:28:19;;;;;;;4.67;0.87;;;;;;;13.82;100.00;95270.94;5035694;28;20207;-71
2023/10/31 10:30:46;;;;;;;3.63;0.77;;;;;;;13.99;100.00;95261.41;5035976;28;20618;-71
2023/10/31 10:33:12;;;;;;;1.43;0.80;;;;;;;13.75;100.00;95258.84;5036157;28;20197;-71
2023/10/31 10:35:39;;;;;;;23.07;1.10;;;;;;;13.70;100.00;95270.06;5036627;28;20239;-72
2023/10/31 10:38:11;;;;;;;2.27;1.07;;;;;;;14.20;100.00;95263.63;5034370;28;20197;-72
2023/10/31 10:40:41;;;;;;;0.80;0.60;;;;;;;13.94;100.00;95268.38;5036005;28;20208;-71
2023/10/31 10:43:13;;;;;;;1.47;0.70;;;;;;;14.12;100.00;95283.28;5036294;28;20208;-72
2023/10/31 10:45:43;;;;;;;2.00;0.70;;;;;;;14.09;100.00;95277.59;5035999;28;20235;-72
2023/10/31 10:48:13;;;;;;;2.00;0.90;;;;;;;13.84;100.00;95284.78;5035466;28;20201;-72
2023/10/31 10:50:43;;;;;;;2.83;1.27;;;;;;;14.28;100.00;95279.22;5035554;28;20232;-71
2023/10/31 10:53:18;;;;;;;0.77;0.67;;;;;;;14.19;100.00;95283.19;5034858;28;20212;-72
2023/10/31 10:55:48;;;;;;;0.77;0.77;;;;;;;13.93;100.00;95283.47;5035298;28;20224;-71
2023/10/31 10:58:23;;;;;;;1.77;0.87;;;;;;;14.24;100.00;95278.88;5035192;28;20223;-71
2023/10/31 11:00:51;;;;;;;2.20;0.80;;;;;;;14.11;100.00;95281.66;5035014;28;20284;-72
2023/10/31 11:03:20;;;;;;;1.67;0.90;;;;;;;13.89;100.00;95277.00;5034690;28;20497;-72
2023/10/31 11:05:47;;;;;;;1.47;0.70;;;;;;;14.27;100.00;95280.28;5034716;28;20241;-72
2023/10/31 11:08:14;;;;;;;1.33;0.60;;;;;;;14.20;100.00;95279.53;5035019;28;20205;-72
2023/10/31 11:10:42;;;;;;;1.13;0.90;;;;;;;14.46;100.00;95279.19;5035597;28;20227;-73
2023/10/31 11:13:11;;;;;;;1.60;0.93;;;;;;;14.67;100.00;95276.88;5038315;28;20690;-72
2023/10/31 11:15:38;;;;;;;2.50;0.70;;;;;;;14.66;100.00;95273.44;5038437;28;20379;-72
2023/10/31 11:18:06;;;;;;;2.17;1.00;;;;;;;14.63;100.00;95278.38;5037918;28;20213;-72
2023/10/31 11:20:32;;;;;;;2.43;0.97;;;;;;;14.51;100.00;95276.69;5038084;28;20227;-72
2023/10/31 11:23:00;;;;;;;1.37;0.90;;;;;;;14.55;100.00;95288.47;5037275;28;20201;-72